Time;durP1;ratioP1;P1;durP2;ratioP2;P2;SDS_P1;SDS_P2;PMS_P1;PMS_P2;Temp;Humidity;BMP_temperature;BMP_pressure;BME280_temperature;BME280_humidity;BME280_pressure;Samples;Min_cycle;Max_cycle;Signal;HPM_P1;HPM_P2
2022/03/06 06:29:59;;;;;;;25.52;14.85;;;;;;;;;;5028072;28;20792;-68
2022/03/06 06:32:25;;;;;;;29.45;15.82;;;;;;;;;;5027943;28;20109;-66
2022/03/06 06:34:51;;;;;;;26.50;13.75;;;;;;;;;;5027840;28;20050;-67
2022/03/06 06:37:17;;;;;;;30.73;16.10;;;;;;;;;;5027746;28;20100;-70
2022/03/06 06:39:43;;;;;;;27.10;15.90;;;;;;;;;;5027625;28;20037;-65
2022/03/06 06:42:10;;;;;;;31.38;16.83;;;;;;;;;;5027635;28;20029;-67
2022/03/06 06:44:36;;;;;;;29.75;15.98;;;;;;;;;;5026836;28;20029;-65
2022/03/06 06:47:03;;;;;;;30.35;16.52;;;;;;;;;;5026531;28;20477;-69
2022/03/06 06:49:29;;;;;;;26.08;13.32;;;;;;;;;;5027283;28;20101;-66
2022/03/06 06:51:55;;;;;;;32.20;15.98;;;;;;;;;;5027070;28;20026;-69
2022/03/06 06:54:21;;;;;;;27.58;16.30;;;;;;;;;;5024487;28;20025;-65
2022/03/06 06:56:47;;;;;;;28.67;14.25;;;;;;;;;;5027040;28;20112;-65
2022/03/06 06:59:13;;;;;;;26.55;14.25;;;;;;;;;;5026543;28;20108;-66
2022/03/06 07:01:40;;;;;;;27.63;15.20;;;;;;;;;;5025532;28;20125;-64
2022/03/06 07:04:06;;;;;;;28.25;15.57;;;;;;;;;;5026283;28;20025;-66
2022/03/06 07:06:32;;;;;;;25.60;13.45;;;;;;;;;;5026851;28;20060;-69
2022/03/06 07:08:58;;;;;;;26.92;15.20;;;;;;;;;;5026100;28;20025;-70
2022/03/06 07:11:24;;;;;;;28.40;14.45;;;;;;;;;;5024599;28;20108;-65
2022/03/06 07:13:50;;;;;;;29.38;15.98;;;;;;;;;;5026846;28;20080;-66
2022/03/06 07:16:17;;;;;;;31.98;15.93;;;;;;;;;;5027076;28;20030;-64
2022/03/06 07:18:43;;;;;;;29.17;14.77;;;;;;;;;;5026959;28;20413;-64
2022/03/06 07:21:10;;;;;;;25.63;13.93;;;;;;;;;;5026132;28;20421;-67
2022/03/06 07:23:36;;;;;;;25.15;13.18;;;;;;;;;;5026920;28;20032;-64
2022/03/06 07:26:02;;;;;;;24.95;13.50;;;;;;;;;;5026864;28;20044;-64
2022/03/06 07:28:29;;;;;;;31.33;16.00;;;;;;;;;;5025696;28;20100;-64
2022/03/06 07:30:55;;;;;;;27.38;14.48;;;;;;;;;;5013340;28;20095;-64
2022/03/06 07:33:21;;;;;;;26.80;14.32;;;;;;;;;;5013007;28;20026;-64
2022/03/06 07:35:47;;;;;;;27.40;14.55;;;;;;;;;;5007050;28;20022;-64
2022/03/06 07:38:14;;;;;;;23.83;11.38;;;;;;;;;;5003093;28;20060;-63
2022/03/06 07:40:40;;;;;;;20.90;11.13;;;;;;;;;;5001464;28;20015;-64
2022/03/06 07:43:06;;;;;;;23.88;12.60;;;;;;;;;;5002084;28;20029;-64
2022/03/06 07:45:32;;;;;;;19.50;9.63;;;;;;;;;;4993769;28;20085;-65
2022/03/06 07:47:58;;;;;;;28.60;14.02;;;;;;;;;;4993795;28;20034;-64
2022/03/06 07:50:26;;;;;;;26.08;12.88;;;;;;;;;;5006976;28;20026;-65
2022/03/06 07:52:52;;;;;;;25.45;13.50;;;;;;;;;;5003621;28;20022;-65
2022/03/06 07:55:18;;;;;;;20.60;10.68;;;;;;;;;;5011060;28;20087;-64
2022/03/06 07:57:44;;;;;;;29.25;14.23;;;;;;;;;;5005289;28;20081;-65
2022/03/06 08:00:11;;;;;;;22.15;11.35;;;;;;;;;;5001477;28;20026;-65
2022/03/06 08:02:37;;;;;;;23.85;11.95;;;;;;;;;;5001789;28;20022;-67
2022/03/06 08:05:04;;;;;;;22.27;12.02;;;;;;;;;;5003153;28;20029;-64
2022/03/06 08:07:31;;;;;;;24.85;11.30;;;;;;;;;;5001103;28;20057;-63
2022/03/06 08:09:57;;;;;;;22.73;12.63;;;;;;;;;;5001595;28;20394;-65
2022/03/06 08:12:25;;;;;;;29.35;15.20;;;;;;;;;;5002862;28;20106;-65
2022/03/06 08:14:51;;;;;;;26.50;13.52;;;;;;;;;;5001306;28;20378;-63
2022/03/06 08:17:18;;;;;;;24.42;11.63;;;;;;;;;;5012511;28;20037;-66
2022/03/06 08:19:44;;;;;;;27.55;14.65;;;;;;;;;;5004873;28;20034;-67
2022/03/06 08:22:10;;;;;;;29.45;14.57;;;;;;;;;;5000492;28;20025;-62
2022/03/06 08:24:36;;;;;;;25.05;13.73;;;;;;;;;;5002185;28;20033;-65
2022/03/06 08:27:02;;;;;;;23.95;13.27;;;;;;;;;;5001687;28;20073;-64
2022/03/06 08:29:28;;;;;;;24.65;13.02;;;;;;;;;;5000309;28;20141;-64
2022/03/06 08:31:54;;;;;;;26.40;12.55;;;;;;;;;;5002368;28;20060;-63
2022/03/06 08:34:20;;;;;;;27.45;14.73;;;;;;;;;;5003611;28;20023;-63
2022/03/06 08:36:46;;;;;;;24.05;12.38;;;;;;;;;;5012521;28;20404;-63
2022/03/06 08:39:12;;;;;;;26.92;13.93;;;;;;;;;;5012089;28;20109;-68
2022/03/06 08:41:38;;;;;;;21.77;11.85;;;;;;;;;;5010887;28;20091;-65
2022/03/06 08:44:04;;;;;;;22.60;12.02;;;;;;;;;;5011906;28;20026;-63
2022/03/06 08:46:31;;;;;;;23.73;12.38;;;;;;;;;;5012006;28;20048;-67
2022/03/06 08:48:57;;;;;;;24.83;12.95;;;;;;;;;;5011895;28;20051;-63
2022/03/06 08:51:23;;;;;;;21.40;12.02;;;;;;;;;;5011953;28;20033;-63
2022/03/06 08:53:49;;;;;;;25.60;12.90;;;;;;;;;;5011711;28;20042;-65
2022/03/06 08:56:15;;;;;;;22.05;11.90;;;;;;;;;;5011916;28;20030;-65
2022/03/06 08:58:41;;;;;;;20.52;10.15;;;;;;;;;;5011724;28;20081;-67
2022/03/06 09:01:07;;;;;;;23.63;13.40;;;;;;;;;;5011995;28;20034;-65
2022/03/06 09:03:33;;;;;;;20.70;11.05;;;;;;;;;;5011727;28;20103;-67
2022/03/06 09:05:59;;;;;;;23.42;13.30;;;;;;;;;;5011509;28;20505;-63
2022/03/06 09:08:25;;;;;;;24.00;12.45;;;;;;;;;;5011276;28;20026;-62
2022/03/06 09:10:51;;;;;;;30.35;15.23;;;;;;;;;;5004344;28;20391;-63
2022/03/06 09:13:17;;;;;;;25.17;13.93;;;;;;;;;;4995987;28;20051;-64
2022/03/06 09:15:43;;;;;;;23.75;12.98;;;;;;;;;;4998824;28;20030;-63
2022/03/06 09:18:09;;;;;;;23.25;14.13;;;;;;;;;;5001297;28;20030;-62
2022/03/06 09:20:35;;;;;;;22.23;12.10;;;;;;;;;;5005397;28;20378;-64
2022/03/06 09:23:03;;;;;;;29.80;15.38;;;;;;;;;;5000145;28;20022;-62
2022/03/06 09:25:32;;;;;;;20.33;11.63;;;;;;;;;;4991760;28;20719;-64
2022/03/06 09:27:59;;;;;;;24.85;12.52;;;;;;;;;;4991481;28;20076;-65
2022/03/06 09:30:25;;;;;;;25.00;13.48;;;;;;;;;;4998952;28;20065;-65
2022/03/06 09:32:51;;;;;;;25.70;14.57;;;;;;;;;;5002376;28;20032;-65
2022/03/06 09:35:17;;;;;;;24.98;13.30;;;;;;;;;;5000948;28;20093;-63
2022/03/06 09:37:44;;;;;;;28.05;13.75;;;;;;;;;;4999096;28;20030;-65
2022/03/06 09:40:10;;;;;;;23.20;12.18;;;;;;;;;;5000412;28;20093;-67
2022/03/06 09:42:37;;;;;;;23.42;12.60;;;;;;;;;;5000795;28;20081;-62
2022/03/06 09:45:08;;;;;;;21.67;12.23;;;;;;;;;;4999104;28;20499;-66
2022/03/06 09:47:35;;;;;;;22.53;12.23;;;;;;;;;;4999935;28;20026;-61
2022/03/06 09:50:01;;;;;;;23.33;12.40;;;;;;;;;;5000658;28;20104;-62
2022/03/06 09:52:28;;;;;;;24.23;12.75;;;;;;;;;;4999055;28;20113;-64
2022/03/06 09:54:54;;;;;;;16.90;9.70;;;;;;;;;;4999632;28;20018;-61
2022/03/06 09:57:20;;;;;;;23.10;11.98;;;;;;;;;;5001195;28;20033;-64
2022/03/06 09:59:47;;;;;;;26.92;13.65;;;;;;;;;;5005415;28;20044;-66
2022/03/06 10:02:13;;;;;;;25.92;13.98;;;;;;;;;;4999980;28;20072;-64
2022/03/06 10:04:39;;;;;;;26.13;14.18;;;;;;;;;;4998101;28;20053;-63
2022/03/06 10:07:10;;;;;;;30.08;14.70;;;;;;;;;;4995729;28;20054;-67
2022/03/06 10:09:54;;;;;;;25.63;12.68;;;;;;;;;;4998816;28;20101;-65
2022/03/06 10:12:26;;;;;;;26.70;14.10;;;;;;;;;;4991271;28;20520;-69
2022/03/06 10:14:53;;;;;;;26.25;12.18;;;;;;;;;;4998315;28;20026;-64
2022/03/06 10:17:20;;;;;;;25.08;13.57;;;;;;;;;;5003505;28;20477;-64
2022/03/06 10:19:57;;;;;;;22.88;13.18;;;;;;;;;;5004741;28;20042;-65
2022/03/06 10:22:25;;;;;;;23.77;12.90;;;;;;;;;;5003743;28;20375;-66
2022/03/06 10:24:52;;;;;;;24.73;13.73;;;;;;;;;;4992537;28;20069;-64
2022/03/06 10:27:38;;;;;;;22.02;12.55;;;;;;;;;;4990867;28;20026;-65
2022/03/06 10:30:22;;;;;;;24.05;12.07;;;;;;;;;;4990893;28;20465;-65
2022/03/06 10:32:48;;;;;;;21.75;10.88;;;;;;;;;;4990657;28;20030;-64
2022/03/06 10:35:14;;;;;;;21.70;11.15;;;;;;;;;;4990707;28;20033;-64
2022/03/06 10:37:40;;;;;;;24.58;12.55;;;;;;;;;;4990945;28;20034;-64
2022/03/06 10:40:07;;;;;;;26.45;13.80;;;;;;;;;;4990962;28;20022;-64
2022/03/06 10:42:34;;;;;;;24.60;14.43;;;;;;;;;;4990859;28;20025;-65
2022/03/06 10:45:00;;;;;;;20.05;11.35;;;;;;;;;;4990803;28;20030;-64
2022/03/06 10:47:26;;;;;;;27.77;13.38;;;;;;;;;;4991180;28;20106;-64
2022/03/06 10:49:59;;;;;;;24.88;13.75;;;;;;;;;;4991007;28;20034;-65
2022/03/06 10:52:25;;;;;;;20.92;11.57;;;;;;;;;;4990960;28;20023;-65
2022/03/06 10:54:52;;;;;;;22.70;12.35;;;;;;;;;;4990810;28;20029;-65
2022/03/06 10:57:19;;;;;;;25.75;14.60;;;;;;;;;;4990447;28;20026;-65
2022/03/06 10:59:45;;;;;;;25.70;13.18;;;;;;;;;;4990388;28;20113;-65
2022/03/06 11:02:12;;;;;;;25.00;12.00;;;;;;;;;;4990421;28;20064;-65
2022/03/06 11:04:38;;;;;;;29.88;15.27;;;;;;;;;;4991417;28;20100;-65
2022/03/06 11:07:05;;;;;;;23.88;13.13;;;;;;;;;;4993934;28;20023;-65
2022/03/06 11:09:31;;;;;;;19.45;9.98;;;;;;;;;;4993818;28;20363;-64
2022/03/06 11:11:57;;;;;;;26.73;13.93;;;;;;;;;;4994001;28;20034;-65
2022/03/06 11:14:24;;;;;;;25.00;13.32;;;;;;;;;;4993540;28;20030;-65
2022/03/06 11:16:50;;;;;;;25.02;13.50;;;;;;;;;;4993784;28;20124;-65
2022/03/06 11:19:16;;;;;;;25.30;13.93;;;;;;;;;;4993679;28;20388;-65
2022/03/06 11:21:43;;;;;;;21.95;12.90;;;;;;;;;;4993644;28;20027;-65
2022/03/06 11:24:12;;;;;;;20.23;11.43;;;;;;;;;;4993779;28;20109;-65
2022/03/06 11:26:57;;;;;;;27.38;13.88;;;;;;;;;;4993489;28;20030;-65
2022/03/06 11:29:26;;;;;;;17.67;9.82;;;;;;;;;;4993047;28;20418;-65
2022/03/06 11:31:54;;;;;;;22.58;11.75;;;;;;;;;;4993706;28;20113;-65
2022/03/06 11:34:24;;;;;;;24.35;13.38;;;;;;;;;;4993567;28;20054;-64
2022/03/06 11:36:51;;;;;;;22.05;12.32;;;;;;;;;;4993446;28;20018;-65
2022/03/06 11:39:29;;;;;;;20.98;10.90;;;;;;;;;;4993184;28;20060;-66
2022/03/06 11:41:56;;;;;;;21.10;12.32;;;;;;;;;;4993191;28;20030;-65
2022/03/06 11:44:45;;;;;;;23.00;12.10;;;;;;;;;;4993474;28;20030;-66
2022/03/06 11:47:29;;;;;;;21.63;12.52;;;;;;;;;;4995690;28;20035;-65
2022/03/06 11:49:56;;;;;;;27.02;13.15;;;;;;;;;;4993310;28;20537;-65
2022/03/06 11:52:27;;;;;;;25.88;13.20;;;;;;;;;;4993282;28;20054;-66
2022/03/06 11:54:53;;;;;;;18.08;10.27;;;;;;;;;;4993450;28;20038;-66
2022/03/06 11:57:37;;;;;;;24.77;12.45;;;;;;;;;;4993050;28;20031;-65
2022/03/06 12:00:15;;;;;;;25.55;12.93;;;;;;;;;;4993223;28;20034;-65
2022/03/06 12:02:46;;;;;;;22.95;12.10;;;;;;;;;;4993134;28;20022;-65
2022/03/06 12:05:12;;;;;;;25.67;12.85;;;;;;;;;;4993040;28;20030;-66
2022/03/06 12:07:40;;;;;;;24.77;13.98;;;;;;;;;;4993013;28;20432;-68
2022/03/06 12:10:10;;;;;;;23.63;11.13;;;;;;;;;;4993025;28;20057;-65
2022/03/06 12:12:37;;;;;;;22.80;13.20;;;;;;;;;;4993144;28;20038;-65
2022/03/06 12:15:16;;;;;;;26.50;14.60;;;;;;;;;;4992618;28;20126;-65
2022/03/06 12:17:42;;;;;;;26.10;14.65;;;;;;;;;;4992849;28;20030;-65
2022/03/06 12:20:08;;;;;;;21.40;12.60;;;;;;;;;;4993352;28;20034;-64
2022/03/06 12:22:35;;;;;;;19.67;12.00;;;;;;;;;;4992725;28;20045;-64
2022/03/06 12:25:04;;;;;;;20.63;11.32;;;;;;;;;;4992795;28;20034;-64
2022/03/06 12:27:31;;;;;;;20.90;11.35;;;;;;;;;;4992123;28;20093;-64
2022/03/06 12:29:58;;;;;;;24.90;13.38;;;;;;;;;;4992412;28;20042;-64
2022/03/06 12:32:30;;;;;;;33.80;17.42;;;;;;;;;;4992664;28;20066;-64
2022/03/06 12:35:00;;;;;;;35.40;18.08;;;;;;;;;;4992534;28;20054;-64
2022/03/06 12:37:30;;;;;;;48.95;21.05;;;;;;;;;;4992177;28;20494;-64
2022/03/06 12:39:57;;;;;;;40.25;20.52;;;;;;;;;;4992708;28;20149;-63
2022/03/06 12:42:25;;;;;;;36.13;18.88;;;;;;;;;;4992308;28;20031;-64
2022/03/06 12:44:55;;;;;;;28.65;15.77;;;;;;;;;;4992293;28;20033;-64
2022/03/06 12:47:22;;;;;;;27.35;16.17;;;;;;;;;;4992478;28;20419;-63
2022/03/06 12:49:48;;;;;;;32.20;18.38;;;;;;;;;;4992429;28;20026;-63
2022/03/06 12:52:20;;;;;;;30.63;18.20;;;;;;;;;;4992159;28;20027;-64
2022/03/06 12:54:47;;;;;;;30.17;16.35;;;;;;;;;;4992671;28;20521;-63
2022/03/06 12:57:14;;;;;;;30.92;17.08;;;;;;;;;;4992128;28;20027;-64
2022/03/06 12:59:41;;;;;;;31.27;17.67;;;;;;;;;;4992278;28;20078;-64
2022/03/06 13:02:08;;;;;;;30.10;16.15;;;;;;;;;;4992233;28;20493;-64
2022/03/06 13:04:35;;;;;;;37.05;18.48;;;;;;;;;;4992177;28;20105;-64
2022/03/06 13:07:01;;;;;;;35.88;19.23;;;;;;;;;;4992054;28;20030;-64
2022/03/06 13:09:29;;;;;;;31.65;15.77;;;;;;;;;;4991478;28;20344;-64
2022/03/06 13:11:56;;;;;;;31.38;17.17;;;;;;;;;;4991774;28;20022;-64
2022/03/06 13:14:26;;;;;;;30.80;16.65;;;;;;;;;;4991618;28;20117;-64
2022/03/06 13:16:59;;;;;;;33.75;18.00;;;;;;;;;;4991655;28;20089;-64
2022/03/06 13:19:25;;;;;;;36.35;20.33;;;;;;;;;;4990744;28;20055;-66
2022/03/06 13:21:51;;;;;;;36.35;18.77;;;;;;;;;;4990903;28;20438;-66
2022/03/06 13:24:17;;;;;;;38.58;21.45;;;;;;;;;;4991640;28;20053;-64
2022/03/06 13:26:43;;;;;;;39.67;21.17;;;;;;;;;;4991255;28;20035;-66
2022/03/06 13:29:16;;;;;;;37.40;21.02;;;;;;;;;;4990712;28;20055;-64
2022/03/06 13:31:43;;;;;;;34.05;20.45;;;;;;;;;;4991621;28;20030;-64
2022/03/06 13:34:10;;;;;;;34.15;20.05;;;;;;;;;;4990840;28;20065;-65
2022/03/06 13:36:37;;;;;;;40.22;22.15;;;;;;;;;;4989861;28;20057;-62
2022/03/06 13:39:14;;;;;;;39.63;20.38;;;;;;;;;;4991028;28;20043;-65
2022/03/06 13:41:49;;;;;;;42.13;21.85;;;;;;;;;;4991202;28;20022;-63
2022/03/06 13:44:15;;;;;;;25.92;14.48;;;;;;;;;;4991263;28;20026;-64
2022/03/06 13:46:41;;;;;;;32.95;18.08;;;;;;;;;;4991059;28;20470;-66
2022/03/06 13:49:12;;;;;;;37.08;18.50;;;;;;;;;;4991154;28;20054;-62
2022/03/06 13:51:38;;;;;;;35.22;18.15;;;;;;;;;;4991331;28;20060;-64
2022/03/06 13:54:06;;;;;;;38.78;20.48;;;;;;;;;;4991276;28;20054;-65
2022/03/06 13:56:43;;;;;;;39.88;23.00;;;;;;;;;;4991449;28;20053;-64
2022/03/06 13:59:13;;;;;;;36.75;20.17;;;;;;;;;;4990729;28;20482;-65
2022/03/06 14:01:39;;;;;;;39.55;22.65;;;;;;;;;;4991106;28;20049;-64
2022/03/06 14:04:07;;;;;;;45.30;23.10;;;;;;;;;;4991136;28;20144;-63
2022/03/06 14:06:38;;;;;;;41.67;23.55;;;;;;;;;;4990857;28;20085;-64
2022/03/06 14:09:17;;;;;;;26.27;14.40;;;;;;;;;;4990566;28;20026;-66
2022/03/06 14:11:43;;;;;;;34.47;17.40;;;;;;;;;;4990944;28;20092;-66
2022/03/06 14:14:09;;;;;;;32.42;18.67;;;;;;;;;;4990891;28;20034;-65
2022/03/06 14:16:35;;;;;;;33.63;19.02;;;;;;;;;;4990531;28;20022;-66
2022/03/06 14:19:02;;;;;;;32.80;18.05;;;;;;;;;;4990494;28;20034;-64
2022/03/06 14:21:38;;;;;;;39.03;21.42;;;;;;;;;;4989939;28;20030;-65
2022/03/06 14:24:05;;;;;;;41.58;21.70;;;;;;;;;;4990919;28;20037;-66
2022/03/06 14:26:42;;;;;;;35.00;20.20;;;;;;;;;;4990979;28;20085;-64
2022/03/06 14:29:27;;;;;;;28.55;15.57;;;;;;;;;;4990256;28;20058;-64
2022/03/06 14:31:57;;;;;;;30.80;17.10;;;;;;;;;;4990741;28;20061;-65
2022/03/06 14:34:28;;;;;;;31.00;16.52;;;;;;;;;;4990299;28;20101;-67
2022/03/06 14:36:54;;;;;;;30.30;17.13;;;;;;;;;;4990759;28;20394;-67
2022/03/06 14:39:21;;;;;;;27.25;15.98;;;;;;;;;;4991349;28;20097;-64
2022/03/06 14:41:48;;;;;;;34.53;19.75;;;;;;;;;;4994471;28;20446;-70
2022/03/06 14:44:14;;;;;;;37.70;21.08;;;;;;;;;;4994416;28;20018;-65
2022/03/06 14:46:40;;;;;;;55.63;25.80;;;;;;;;;;4994621;28;20489;-68
2022/03/06 14:49:07;;;;;;;59.55;27.20;;;;;;;;;;4994346;28;20030;-69
2022/03/06 14:51:33;;;;;;;47.15;23.77;;;;;;;;;;5003725;28;20034;-67
2022/03/06 14:54:03;;;;;;;34.15;18.30;;;;;;;;;;5002422;28;20093;-65
2022/03/06 14:56:32;;;;;;;19.67;12.10;;;;;;;;;;5002305;28;20029;-68
2022/03/06 14:58:58;;;;;;;33.35;18.45;;;;;;;;;;5003857;28;20053;-66
2022/03/06 15:01:24;;;;;;;34.78;19.33;;;;;;;;;;5002435;28;20038;-68
2022/03/06 15:03:50;;;;;;;20.02;10.55;;;;;;;;;;5002543;28;20113;-68
2022/03/06 15:06:16;;;;;;;32.45;16.83;;;;;;;;;;5004203;28;20026;-67
2022/03/06 15:08:43;;;;;;;32.58;18.27;;;;;;;;;;5002144;28;20382;-67
2022/03/06 15:11:09;;;;;;;33.92;20.80;;;;;;;;;;5002350;28;20022;-68
2022/03/06 15:13:35;;;;;;;38.25;21.08;;;;;;;;;;5003274;28;20045;-67
2022/03/06 15:16:01;;;;;;;43.85;22.15;;;;;;;;;;5001715;28;20026;-70
2022/03/06 15:18:28;;;;;;;46.50;25.38;;;;;;;;;;5002187;28;20029;-67
2022/03/06 15:20:54;;;;;;;40.38;22.70;;;;;;;;;;4998409;28;20037;-64
2022/03/06 15:23:20;;;;;;;46.28;25.83;;;;;;;;;;4993567;28;20222;-65
2022/03/06 15:25:46;;;;;;;43.00;23.95;;;;;;;;;;4993563;28;20034;-70
2022/03/06 15:28:13;;;;;;;41.25;22.15;;;;;;;;;;4992682;28;20400;-69
2022/03/06 15:30:40;;;;;;;39.25;21.88;;;;;;;;;;4993633;28;20022;-64
2022/03/06 15:33:06;;;;;;;38.72;22.13;;;;;;;;;;4993456;28;20037;-67
2022/03/06 15:35:32;;;;;;;37.90;21.75;;;;;;;;;;4993264;28;20145;-65
2022/03/06 15:37:58;;;;;;;40.33;21.40;;;;;;;;;;4993157;28;20061;-68
2022/03/06 15:40:24;;;;;;;38.80;21.15;;;;;;;;;;4992994;28;20026;-77
2022/03/06 15:42:50;;;;;;;38.45;21.65;;;;;;;;;;4993725;28;20033;-74
2022/03/06 15:45:16;;;;;;;41.53;23.65;;;;;;;;;;4994333;28;20026;-73
2022/03/06 15:47:42;;;;;;;41.30;23.10;;;;;;;;;;4995249;28;20756;-78
2022/03/06 15:50:09;;;;;;;36.28;20.90;;;;;;;;;;4992896;28;20027;-65
2022/03/06 15:52:35;;;;;;;31.98;18.45;;;;;;;;;;4997756;28;20109;-76
2022/03/06 15:55:01;;;;;;;37.47;20.60;;;;;;;;;;5002250;28;20018;-76
2022/03/06 15:57:28;;;;;;;34.85;19.20;;;;;;;;;;4996143;28;20034;-73
2022/03/06 15:59:54;;;;;;;39.08;21.90;;;;;;;;;;4993408;28;20042;-64
2022/03/06 16:02:21;;;;;;;37.80;21.52;;;;;;;;;;4992963;28;20141;-63
2022/03/06 16:04:47;;;;;;;35.83;20.50;;;;;;;;;;4992669;28;20116;-68
2022/03/06 16:07:15;;;;;;;41.22;22.63;;;;;;;;;;4992756;28;20485;-67
2022/03/06 16:09:41;;;;;;;41.42;23.85;;;;;;;;;;4992498;28;20023;-68
2022/03/06 16:12:07;;;;;;;35.08;19.30;;;;;;;;;;4992882;28;20069;-75
2022/03/06 16:14:34;;;;;;;45.00;24.33;;;;;;;;;;4995111;28;20434;-72
2022/03/06 16:17:00;;;;;;;41.70;23.40;;;;;;;;;;5006037;28;20125;-64
2022/03/06 16:19:26;;;;;;;38.63;22.02;;;;;;;;;;5006457;28;20050;-66
2022/03/06 16:21:52;;;;;;;36.78;20.13;;;;;;;;;;5011537;28;20026;-68
2022/03/06 16:24:18;;;;;;;44.70;25.38;;;;;;;;;;5009824;28;20036;-67
2022/03/06 16:26:44;;;;;;;36.53;19.10;;;;;;;;;;4998485;28;20026;-69
2022/03/06 16:29:11;;;;;;;38.03;20.40;;;;;;;;;;4993038;28;20109;-69
2022/03/06 16:31:37;;;;;;;42.28;23.02;;;;;;;;;;5002938;28;20049;-71
2022/03/06 16:34:04;;;;;;;46.55;26.05;;;;;;;;;;5007290;28;20053;-70
2022/03/06 16:36:32;;;;;;;50.30;27.38;;;;;;;;;;5004520;28;20034;-70
2022/03/06 16:38:59;;;;;;;47.00;25.02;;;;;;;;;;5011826;28;20037;-71
2022/03/06 16:41:25;;;;;;;49.90;25.92;;;;;;;;;;5012016;28;20640;-72
2022/03/06 16:43:51;;;;;;;42.05;23.80;;;;;;;;;;5010838;28;20105;-70
2022/03/06 16:46:21;;;;;;;42.65;23.73;;;;;;;;;;5012043;28;20025;-71
2022/03/06 16:48:47;;;;;;;43.45;25.10;;;;;;;;;;5012043;28;20025;-69
2022/03/06 16:51:13;;;;;;;46.45;25.50;;;;;;;;;;5011670;28;20443;-68
2022/03/06 16:53:39;;;;;;;39.58;22.80;;;;;;;;;;5011611;28;20371;-69
2022/03/06 16:56:05;;;;;;;43.53;24.20;;;;;;;;;;5011698;28;20049;-68
2022/03/06 16:58:34;;;;;;;44.35;24.73;;;;;;;;;;5011498;28;20041;-70
2022/03/06 17:01:00;;;;;;;44.03;24.02;;;;;;;;;;5011616;28;20037;-68
2022/03/06 17:03:26;;;;;;;41.28;23.52;;;;;;;;;;5010756;28;20077;-71
2022/03/06 17:05:53;;;;;;;40.38;23.48;;;;;;;;;;5000357;28;20023;-68
2022/03/06 17:08:19;;;;;;;47.03;25.50;;;;;;;;;;4991461;28;20034;-67
2022/03/06 17:10:45;;;;;;;41.63;23.55;;;;;;;;;;4991353;28;20034;-70
2022/03/06 17:13:11;;;;;;;48.53;25.80;;;;;;;;;;4991180;28;20027;-68
2022/03/06 17:15:37;;;;;;;45.67;25.65;;;;;;;;;;4991543;28;20157;-70
2022/03/06 17:18:04;;;;;;;46.38;26.10;;;;;;;;;;4991451;28;20027;-70
2022/03/06 17:20:31;;;;;;;44.72;22.77;;;;;;;;;;4993954;28;20117;-70
2022/03/06 17:22:57;;;;;;;44.65;22.48;;;;;;;;;;4994488;28;20141;-70
2022/03/06 17:25:23;;;;;;;43.33;23.23;;;;;;;;;;4995713;28;20030;-68
2022/03/06 17:27:49;;;;;;;42.97;24.38;;;;;;;;;;4990035;28;20417;-69
2022/03/06 17:30:16;;;;;;;41.83;24.48;;;;;;;;;;4991373;28;20053;-69
2022/03/06 17:32:42;;;;;;;49.15;25.88;;;;;;;;;;4991453;28;20478;-71
2022/03/06 17:35:09;;;;;;;43.75;25.30;;;;;;;;;;4991583;28;20126;-69
2022/03/06 17:37:35;;;;;;;46.00;24.10;;;;;;;;;;4991552;28;20104;-67
2022/03/06 17:40:02;;;;;;;44.63;24.30;;;;;;;;;;4991522;28;20490;-67
2022/03/06 17:42:28;;;;;;;48.50;26.42;;;;;;;;;;4992875;28;20077;-68
2022/03/06 17:44:54;;;;;;;43.80;23.88;;;;;;;;;;4993877;28;20031;-66
2022/03/06 17:47:21;;;;;;;44.92;24.90;;;;;;;;;;4990543;28;20618;-67
2022/03/06 17:49:47;;;;;;;47.83;24.50;;;;;;;;;;4990898;28;20482;-71
2022/03/06 17:52:13;;;;;;;46.38;25.13;;;;;;;;;;4994432;28;20029;-69
2022/03/06 17:54:39;;;;;;;43.10;23.50;;;;;;;;;;5003056;28;20038;-68
2022/03/06 17:57:05;;;;;;;42.05;24.02;;;;;;;;;;5010551;28;20021;-69
2022/03/06 17:59:31;;;;;;;44.10;23.67;;;;;;;;;;5010297;28;20063;-72
2022/03/06 18:01:59;;;;;;;45.28;24.73;;;;;;;;;;5000778;28;20026;-68
2022/03/06 18:04:25;;;;;;;49.17;27.02;;;;;;;;;;5002582;28;20073;-68
2022/03/06 18:06:51;;;;;;;44.65;24.33;;;;;;;;;;4990371;28;20069;-68
2022/03/06 18:09:17;;;;;;;48.25;25.67;;;;;;;;;;4997328;28;20026;-66
2022/03/06 18:11:43;;;;;;;44.78;20.95;;;;;;;;;;4998164;28;20026;-67
2022/03/06 18:14:11;;;;;;;48.55;24.42;;;;;;;;;;4996870;28;20062;-68
2022/03/06 18:16:38;;;;;;;49.80;25.63;;;;;;;;;;4990652;28;20027;-67
2022/03/06 18:19:04;;;;;;;54.00;29.08;;;;;;;;;;4990181;28;20042;-71
2022/03/06 18:21:30;;;;;;;52.42;28.38;;;;;;;;;;4990623;28;20026;-64
2022/03/06 18:23:56;;;;;;;49.63;25.98;;;;;;;;;;4990402;28;20106;-66
2022/03/06 18:26:25;;;;;;;54.40;29.88;;;;;;;;;;4991088;28;20277;-63
2022/03/06 18:28:51;;;;;;;62.92;32.08;;;;;;;;;;4989925;28;20399;-71
2022/03/06 18:31:35;;;;;;;68.03;33.58;;;;;;;;;;4990181;28;20031;-65
2022/03/06 18:34:02;;;;;;;71.13;36.05;;;;;;;;;;4990383;28;20034;-65
2022/03/06 18:36:28;;;;;;;74.47;36.28;;;;;;;;;;4990511;28;20030;-65
2022/03/06 18:38:54;;;;;;;64.80;35.28;;;;;;;;;;4990231;28;20522;-67
2022/03/06 18:41:20;;;;;;;66.78;33.25;;;;;;;;;;4989916;28;20077;-65
2022/03/06 18:43:47;;;;;;;64.60;31.23;;;;;;;;;;4990437;28;20038;-64
2022/03/06 18:46:13;;;;;;;63.15;33.22;;;;;;;;;;4990380;28;20026;-64
2022/03/06 18:48:39;;;;;;;69.47;34.05;;;;;;;;;;4990380;28;20034;-64
2022/03/06 18:51:06;;;;;;;70.13;35.42;;;;;;;;;;4989967;28;20032;-65
2022/03/06 18:53:32;;;;;;;70.97;35.40;;;;;;;;;;4996305;28;20034;-64
2022/03/06 18:55:59;;;;;;;68.07;33.67;;;;;;;;;;4997972;28;20033;-64
2022/03/06 18:58:25;;;;;;;66.75;32.70;;;;;;;;;;4989975;28;20125;-64
2022/03/06 19:00:51;;;;;;;69.95;33.58;;;;;;;;;;4984955;28;20026;-68
2022/03/06 19:03:17;;;;;;;65.50;32.42;;;;;;;;;;4989584;28;20041;-69
2022/03/06 19:05:44;;;;;;;68.50;33.55;;;;;;;;;;4989604;28;20023;-63
2022/03/06 19:08:10;;;;;;;68.35;31.33;;;;;;;;;;4994715;28;20018;-72
2022/03/06 19:10:36;;;;;;;70.05;34.20;;;;;;;;;;4999860;28;20504;-74
2022/03/06 19:13:02;;;;;;;68.05;34.90;;;;;;;;;;4999301;28;20030;-72
2022/03/06 19:15:28;;;;;;;64.60;33.35;;;;;;;;;;4998982;28;20389;-72
2022/03/06 19:17:54;;;;;;;66.20;32.83;;;;;;;;;;5002259;28;20034;-72
2022/03/06 19:20:21;;;;;;;68.05;35.03;;;;;;;;;;5006475;28;20030;-73
2022/03/06 19:22:48;;;;;;;62.90;33.08;;;;;;;;;;5002507;28;20417;-71
2022/03/06 19:25:14;;;;;;;57.65;31.15;;;;;;;;;;4990625;28;20109;-73
2022/03/06 19:27:40;;;;;;;58.25;31.55;;;;;;;;;;4994310;28;20328;-72
2022/03/06 19:30:08;;;;;;;59.28;31.40;;;;;;;;;;5002242;28;20117;-67
2022/03/06 19:32:34;;;;;;;59.67;31.50;;;;;;;;;;5000630;28;20163;-69
2022/03/06 19:35:00;;;;;;;60.42;31.58;;;;;;;;;;5002191;28;20152;-73
2022/03/06 19:37:26;;;;;;;61.50;32.25;;;;;;;;;;5000983;28;20488;-63
2022/03/06 19:39:52;;;;;;;65.10;34.70;;;;;;;;;;4992937;28;20140;-68
2022/03/06 19:42:18;;;;;;;64.43;33.42;;;;;;;;;;4993083;28;20430;-61
2022/03/06 19:44:45;;;;;;;68.55;34.15;;;;;;;;;;4995690;28;20178;-70
2022/03/06 19:47:11;;;;;;;66.55;34.03;;;;;;;;;;5003458;28;20481;-63
2022/03/06 19:49:37;;;;;;;62.78;31.05;;;;;;;;;;4999026;28;20112;-72
2022/03/06 19:52:04;;;;;;;77.47;37.67;;;;;;;;;;4999839;28;20060;-70
2022/03/06 19:54:30;;;;;;;71.30;36.38;;;;;;;;;;5002006;28;20045;-69
2022/03/06 19:56:57;;;;;;;74.97;36.67;;;;;;;;;;5000806;28;20022;-68
2022/03/06 19:59:25;;;;;;;64.32;30.65;;;;;;;;;;4999789;28;20038;-67
2022/03/06 20:01:52;;;;;;;66.93;32.22;;;;;;;;;;5000870;28;20018;-69
2022/03/06 20:04:24;;;;;;;62.28;31.80;;;;;;;;;;5002073;28;20029;-68
2022/03/06 20:06:51;;;;;;;62.10;32.80;;;;;;;;;;5000754;28;20038;-67
2022/03/06 20:09:17;;;;;;;67.63;35.15;;;;;;;;;;5000329;28;20422;-68
2022/03/06 20:11:44;;;;;;;69.43;34.42;;;;;;;;;;5002041;28;20481;-69
2022/03/06 20:14:10;;;;;;;69.63;35.10;;;;;;;;;;5000334;28;20050;-69
2022/03/06 20:16:36;;;;;;;72.05;36.58;;;;;;;;;;4999118;28;20032;-61
2022/03/06 20:19:02;;;;;;;65.28;35.97;;;;;;;;;;5005258;28;20126;-61
2022/03/06 20:21:28;;;;;;;70.90;36.83;;;;;;;;;;4999934;28;20022;-62
2022/03/06 20:23:54;;;;;;;66.28;31.90;;;;;;;;;;5000593;28;20038;-60
2022/03/06 20:26:21;;;;;;;70.95;36.08;;;;;;;;;;5002378;28;20030;-65
2022/03/06 20:28:48;;;;;;;66.82;34.42;;;;;;;;;;5011539;28;20054;-60
2022/03/06 20:31:15;;;;;;;64.88;32.70;;;;;;;;;;5011370;28;20041;-62
2022/03/06 20:33:41;;;;;;;71.97;35.88;;;;;;;;;;5011319;28;20367;-65
2022/03/06 20:36:07;;;;;;;79.38;38.90;;;;;;;;;;5011960;28;20093;-62
2022/03/06 20:38:33;;;;;;;71.97;35.42;;;;;;;;;;5011431;28;20046;-62
2022/03/06 20:41:00;;;;;;;68.55;36.55;;;;;;;;;;5011557;28;20053;-61
2022/03/06 20:43:26;;;;;;;69.88;36.72;;;;;;;;;;5010854;28;20061;-61
2022/03/06 20:45:54;;;;;;;69.68;36.42;;;;;;;;;;5010876;28;20033;-64